Coastal Carolina Regional Airport New Bern US
ICAO: KEWN
IATA: EWN
Category: Medium
Scheduled Services: Yes

Elevation: 18 ft
TransAlt. 18000 ft.

Airport Communications:
CHERRY POINT APP/DEP:119.35
ASOS:118.525
CLNC DEL:120.525
CTAF:124.25
GND:121.7
RALEIGH RDO:122.2
NEW BERN TWR:124.25

KEWN Zoom In..

Runways:

(A) RW 04 length 6453 ft width 150 ft
ILS 110.50 / hdg 39

(B) RW 14 length 4000 ft width 150 ft
---- / hdg 136

(C) RW 22 length 6453 ft width 150 ft
---- / hdg 219

(D) RW 32 length 4000 ft width 150 ft
---- / hdg 316

Location; KEWN
Day. 21 / Time. 06.00 Zulu
* Altimeter: 29.90
* Temperature: 23° c. 73.4°f.
* Wind from: 140° Speed 05 kn.
Dewpoint: 23° c.
Visibility: 2 m.
Clouds: Scattered 800 ft.
Clouds: Broken 1200 ft.
Clouds: Overcast 2900 ft.
Conditions: Mist.

KEWN 210600Z AUTO 14005KT 2 1/2SM +RA BR SCT008 BKN012 OVC029 23/23 A2990 RMK AO2 P0003 T02280228


Wind From 140°
Speed 05 kn.

 
 
jpsmedia.com for Web Design worldairports.se 2018   terms of use